sensor_id;sensor_type;location;lat;lon;timestamp;P1;durP1;ratioP1;P2;durP2;ratioP2
35592;SDS011;64447;52.140;5.602;2023-08-31T02:31:32;6.55;;;5.72;;
35592;SDS011;64447;52.140;5.602;2023-08-31T02:33:57;8.35;;;7.05;;
35592;SDS011;64447;52.140;5.602;2023-08-31T02:36:23;9.85;;;7.32;;
35592;SDS011;64447;52.140;5.602;2023-08-31T02:38:48;10.90;;;8.77;;
35592;SDS011;64447;52.140;5.602;2023-08-31T02:41:15;12.27;;;10.25;;
35592;SDS011;64447;52.140;5.602;2023-08-31T02:43:42;13.85;;;12.45;;
35592;SDS011;64447;52.140;5.602;2023-08-31T02:46:07;13.35;;;11.95;;
35592;SDS011;64447;52.140;5.602;2023-08-31T02:48:33;15.23;;;13.15;;
35592;SDS011;64447;52.140;5.602;2023-08-31T02:50:59;14.48;;;12.43;;
35592;SDS011;64447;52.140;5.602;2023-08-31T02:53:29;16.23;;;14.32;;
35592;SDS011;64447;52.140;5.602;2023-08-31T02:55:55;17.42;;;13.70;;
35592;SDS011;64447;52.140;5.602;2023-08-31T02:58:21;20.17;;;15.52;;
35592;SDS011;64447;52.140;5.602;2023-08-31T03:00:47;17.77;;;15.20;;
35592;SDS011;64447;52.140;5.602;2023-08-31T03:03:17;18.73;;;14.82;;
35592;SDS011;64447;52.140;5.602;2023-08-31T03:05:43;15.32;;;13.68;;
35592;SDS011;64447;52.140;5.602;2023-08-31T03:08:09;15.65;;;14.05;;
35592;SDS011;64447;52.140;5.602;2023-08-31T03:10:35;16.08;;;13.90;;
35592;SDS011;64447;52.140;5.602;2023-08-31T03:16:23;12.65;;;11.35;;
35592;SDS011;64447;52.140;5.602;2023-08-31T03:18:49;13.43;;;10.98;;
35592;SDS011;64447;52.140;5.602;2023-08-31T03:21:14;16.05;;;12.18;;
35592;SDS011;64447;52.140;5.602;2023-08-31T03:23:40;14.07;;;12.52;;
35592;SDS011;64447;52.140;5.602;2023-08-31T03:26:09;18.52;;;13.57;;
35592;SDS011;64447;52.140;5.602;2023-08-31T03:28:34;16.95;;;14.18;;
35592;SDS011;64447;52.140;5.602;2023-08-31T03:31:00;17.20;;;13.20;;
35592;SDS011;64447;52.140;5.602;2023-08-31T03:33:26;14.48;;;12.77;;
35592;SDS011;64447;52.140;5.602;2023-08-31T03:35:54;16.60;;;13.05;;
35592;SDS011;64447;52.140;5.602;2023-08-31T03:38:24;18.58;;;13.38;;
35592;SDS011;64447;52.140;5.602;2023-08-31T03:40:53;17.92;;;12.95;;
35592;SDS011;64447;52.140;5.602;2023-08-31T03:46:42;17.55;;;12.70;;
35592;SDS011;64447;52.140;5.602;2023-08-31T03:49:08;18.15;;;13.18;;
35592;SDS011;64447;52.140;5.602;2023-08-31T03:51:33;17.95;;;13.63;;
35592;SDS011;64447;52.140;5.602;2023-08-31T03:53:59;15.88;;;11.93;;
35592;SDS011;64447;52.140;5.602;2023-08-31T03:56:25;17.40;;;12.38;;
35592;SDS011;64447;52.140;5.602;2023-08-31T03:58:51;15.32;;;11.75;;
35592;SDS011;64447;52.140;5.602;2023-08-31T04:01:17;16.08;;;12.65;;
35592;SDS011;64447;52.140;5.602;2023-08-31T04:03:43;15.35;;;11.48;;
35592;SDS011;64447;52.140;5.602;2023-08-31T04:06:08;15.55;;;11.95;;
35592;SDS011;64447;52.140;5.602;2023-08-31T04:08:34;15.32;;;11.27;;
35592;SDS011;64447;52.140;5.602;2023-08-31T04:11:00;12.82;;;10.82;;
35592;SDS011;64447;52.140;5.602;2023-08-31T04:16:47;10.80;;;8.85;;
35592;SDS011;64447;52.140;5.602;2023-08-31T04:19:15;10.38;;;7.95;;
35592;SDS011;64447;52.140;5.602;2023-08-31T04:21:41;11.90;;;8.30;;
35592;SDS011;64447;52.140;5.602;2023-08-31T04:24:08;11.05;;;8.70;;
35592;SDS011;64447;52.140;5.602;2023-08-31T04:26:33;11.63;;;8.73;;
35592;SDS011;64447;52.140;5.602;2023-08-31T04:28:59;17.95;;;9.73;;
35592;SDS011;64447;52.140;5.602;2023-08-31T04:31:24;16.10;;;9.10;;
35592;SDS011;64447;52.140;5.602;2023-08-31T04:33:50;10.63;;;9.13;;
35592;SDS011;64447;52.140;5.602;2023-08-31T04:36:19;13.05;;;9.30;;
35592;SDS011;64447;52.140;5.602;2023-08-31T04:38:50;15.77;;;9.88;;
35592;SDS011;64447;52.140;5.602;2023-08-31T04:41:16;11.57;;;10.05;;
35592;SDS011;64447;52.140;5.602;2023-08-31T04:47:22;14.57;;;11.07;;
35592;SDS011;64447;52.140;5.602;2023-08-31T04:49:48;17.65;;;12.40;;
35592;SDS011;64447;52.140;5.602;2023-08-31T04:52:13;16.73;;;12.20;;
35592;SDS011;64447;52.140;5.602;2023-08-31T04:54:39;18.10;;;12.82;;
35592;SDS011;64447;52.140;5.602;2023-08-31T04:57:05;14.02;;;11.38;;
35592;SDS011;64447;52.140;5.602;2023-08-31T04:59:32;15.82;;;12.63;;
35592;SDS011;64447;52.140;5.602;2023-08-31T05:01:58;15.57;;;12.95;;
35592;SDS011;64447;52.140;5.602;2023-08-31T05:04:23;15.73;;;12.57;;
35592;SDS011;64447;52.140;5.602;2023-08-31T05:06:49;16.02;;;12.50;;
35592;SDS011;64447;52.140;5.602;2023-08-31T05:09:14;17.25;;;13.07;;
35592;SDS011;64447;52.140;5.602;2023-08-31T05:11:40;18.73;;;13.27;;
35592;SDS011;64447;52.140;5.602;2023-08-31T05:14:06;18.67;;;12.38;;
35592;SDS011;64447;52.140;5.602;2023-08-31T05:16:32;17.95;;;11.95;;
35592;SDS011;64447;52.140;5.602;2023-08-31T05:18:57;14.90;;;11.25;;
35592;SDS011;64447;52.140;5.602;2023-08-31T05:21:23;15.93;;;11.77;;
35592;SDS011;64447;52.140;5.602;2023-08-31T05:23:48;18.65;;;13.95;;
35592;SDS011;64447;52.140;5.602;2023-08-31T05:26:14;13.68;;;11.02;;
35592;SDS011;64447;52.140;5.602;2023-08-31T05:32:02;9.68;;;7.70;;
35592;SDS011;64447;52.140;5.602;2023-08-31T05:34:28;8.55;;;6.93;;
35592;SDS011;64447;52.140;5.602;2023-08-31T05:36:53;10.05;;;6.85;;
35592;SDS011;64447;52.140;5.602;2023-08-31T05:39:19;10.57;;;7.18;;
35592;SDS011;64447;52.140;5.602;2023-08-31T05:41:45;11.05;;;7.78;;
35592;SDS011;64447;52.140;5.602;2023-08-31T05:44:10;10.60;;;8.20;;
35592;SDS011;64447;52.140;5.602;2023-08-31T05:46:36;16.98;;;11.20;;
35592;SDS011;64447;52.140;5.602;2023-08-31T05:49:03;16.92;;;11.77;;
35592;SDS011;64447;52.140;5.602;2023-08-31T05:51:29;19.88;;;13.65;;
35592;SDS011;64447;52.140;5.602;2023-08-31T05:53:54;17.15;;;13.95;;
35592;SDS011;64447;52.140;5.602;2023-08-31T05:56:20;19.13;;;14.80;;
35592;SDS011;64447;52.140;5.602;2023-08-31T07:26:56;11.70;;;8.88;;
35592;SDS011;64447;52.140;5.602;2023-08-31T22:52:57;7.00;;;5.43;;
35592;SDS011;64447;52.140;5.602;2023-08-31T22:55:23;10.00;;;5.50;;
35592;SDS011;64447;52.140;5.602;2023-08-31T22:57:48;7.22;;;5.20;;
35592;SDS011;64447;52.140;5.602;2023-08-31T23:00:14;7.20;;;5.22;;
35592;SDS011;64447;52.140;5.602;2023-08-31T23:02:40;7.82;;;5.40;;
35592;SDS011;64447;52.140;5.602;2023-08-31T23:05:05;8.50;;;5.03;;
35592;SDS011;64447;52.140;5.602;2023-08-31T23:07:31;7.30;;;4.72;;
35592;SDS011;64447;52.140;5.602;2023-08-31T23:09:57;6.85;;;5.32;;
35592;SDS011;64447;52.140;5.602;2023-08-31T23:12:24;5.35;;;4.50;;
35592;SDS011;64447;52.140;5.602;2023-08-31T23:14:49;7.15;;;5.25;;
35592;SDS011;64447;52.140;5.602;2023-08-31T23:17:15;12.48;;;4.93;;
35592;SDS011;64447;52.140;5.602;2023-08-31T23:23:02;6.95;;;5.20;;
35592;SDS011;64447;52.140;5.602;2023-08-31T23:25:28;8.30;;;4.75;;
35592;SDS011;64447;52.140;5.602;2023-08-31T23:27:53;8.98;;;5.55;;
35592;SDS011;64447;52.140;5.602;2023-08-31T23:30:19;7.68;;;5.38;;
35592;SDS011;64447;52.140;5.602;2023-08-31T23:32:44;6.35;;;4.90;;
35592;SDS011;64447;52.140;5.602;2023-08-31T23:35:10;7.15;;;5.03;;
35592;SDS011;64447;52.140;5.602;2023-08-31T23:37:35;8.45;;;5.32;;
35592;SDS011;64447;52.140;5.602;2023-08-31T23:40:02;6.70;;;5.22;;
35592;SDS011;64447;52.140;5.602;2023-08-31T23:42:33;6.57;;;4.65;;
35592;SDS011;64447;52.140;5.602;2023-08-31T23:44:59;8.40;;;5.07;;
35592;SDS011;64447;52.140;5.602;2023-08-31T23:47:24;5.43;;;4.65;;
35592;SDS011;64447;52.140;5.602;2023-08-31T23:53:12;5.63;;;4.28;;
35592;SDS011;64447;52.140;5.602;2023-08-31T23:55:38;7.43;;;4.88;;
35592;SDS011;64447;52.140;5.602;2023-08-31T23:58:04;8.32;;;4.45;;
